sensor_id;sensor_type;location;lat;lon;timestamp;temperature;humidity
20735;DHT22;10528;52.124;5.196;2023-05-24T00:02:24;10.10;99.90
20735;DHT22;10528;52.124;5.196;2023-05-24T00:04:52;10.10;99.90
20735;DHT22;10528;52.124;5.196;2023-05-24T00:07:22;10.10;99.90
20735;DHT22;10528;52.124;5.196;2023-05-24T00:09:48;10.10;99.90
20735;DHT22;10528;52.124;5.196;2023-05-24T00:12:15;10.00;99.90
20735;DHT22;10528;52.124;5.196;2023-05-24T00:14:42;10.00;99.90
20735;DHT22;10528;52.124;5.196;2023-05-24T00:17:09;9.90;99.90
20735;DHT22;10528;52.124;5.196;2023-05-24T00:19:38;9.90;99.90
20735;DHT22;10528;52.124;5.196;2023-05-24T00:22:05;9.90;99.90
20735;DHT22;10528;52.124;5.196;2023-05-24T00:24:32;9.90;99.90
20735;DHT22;10528;52.124;5.196;2023-05-24T00:26:59;9.90;99.90
20735;DHT22;10528;52.124;5.196;2023-05-24T00:29:26;9.80;99.90
20735;DHT22;10528;52.124;5.196;2023-05-24T00:31:55;9.80;99.90
20735;DHT22;10528;52.124;5.196;2023-05-24T00:34:22;9.80;99.90
20735;DHT22;10528;52.124;5.196;2023-05-24T00:36:49;9.70;99.90
20735;DHT22;10528;52.124;5.196;2023-05-24T00:39:16;9.60;99.90
20735;DHT22;10528;52.124;5.196;2023-05-24T00:41:43;9.60;99.90
20735;DHT22;10528;52.124;5.196;2023-05-24T00:44:09;9.60;99.90
20735;DHT22;10528;52.124;5.196;2023-05-24T00:46:36;9.50;99.90
20735;DHT22;10528;52.124;5.196;2023-05-24T00:49:04;9.50;99.90
20735;DHT22;10528;52.124;5.196;2023-05-24T00:51:31;9.50;99.90
20735;DHT22;10528;52.124;5.196;2023-05-24T00:53:59;9.50;99.90
20735;DHT22;10528;52.124;5.196;2023-05-24T00:56:27;9.50;99.90
20735;DHT22;10528;52.124;5.196;2023-05-24T00:58:54;9.50;99.90
20735;DHT22;10528;52.124;5.196;2023-05-24T01:01:22;9.60;99.90
20735;DHT22;10528;52.124;5.196;2023-05-24T01:03:52;9.50;99.90
20735;DHT22;10528;52.124;5.196;2023-05-24T01:06:20;9.60;99.90
20735;DHT22;10528;52.124;5.196;2023-05-24T01:14:52;9.40;99.90
20735;DHT22;10528;52.124;5.196;2023-05-24T01:17:56;9.40;99.90
20735;DHT22;10528;52.124;5.196;2023-05-24T01:20:32;9.40;99.90
20735;DHT22;10528;52.124;5.196;2023-05-24T01:25:59;9.40;99.90
20735;DHT22;10528;52.124;5.196;2023-05-24T01:28:35;9.40;99.90
20735;DHT22;10528;52.124;5.196;2023-05-24T01:31:05;9.30;99.90
20735;DHT22;10528;52.124;5.196;2023-05-24T01:33:32;9.40;99.90
20735;DHT22;10528;52.124;5.196;2023-05-24T01:35:59;9.30;99.90
20735;DHT22;10528;52.124;5.196;2023-05-24T01:38:26;9.30;99.90
20735;DHT22;10528;52.124;5.196;2023-05-24T01:41:00;9.20;99.90
20735;DHT22;10528;52.124;5.196;2023-05-24T01:43:37;9.20;99.90
20735;DHT22;10528;52.124;5.196;2023-05-24T01:46:18;9.10;99.90
20735;DHT22;10528;52.124;5.196;2023-05-24T01:51:23;9.00;99.90
20735;DHT22;10528;52.124;5.196;2023-05-24T01:53:55;9.10;99.90
20735;DHT22;10528;52.124;5.196;2023-05-24T01:56:24;9.10;99.90
20735;DHT22;10528;52.124;5.196;2023-05-24T01:58:53;9.10;99.90
20735;DHT22;10528;52.124;5.196;2023-05-24T02:01:23;9.10;99.90
20735;DHT22;10528;52.124;5.196;2023-05-24T02:03:52;9.10;99.90
20735;DHT22;10528;52.124;5.196;2023-05-24T02:06:19;9.10;99.90
20735;DHT22;10528;52.124;5.196;2023-05-24T02:08:46;9.00;99.90
20735;DHT22;10528;52.124;5.196;2023-05-24T02:11:13;8.90;99.90
20735;DHT22;10528;52.124;5.196;2023-05-24T02:13:40;8.90;99.90
20735;DHT22;10528;52.124;5.196;2023-05-24T02:16:07;8.90;99.90
20735;DHT22;10528;52.124;5.196;2023-05-24T02:18:34;8.90;99.90
20735;DHT22;10528;52.124;5.196;2023-05-24T02:21:01;8.90;99.90
20735;DHT22;10528;52.124;5.196;2023-05-24T02:23:28;8.90;99.90
20735;DHT22;10528;52.124;5.196;2023-05-24T02:25:55;8.80;99.90
20735;DHT22;10528;52.124;5.196;2023-05-24T02:28:22;8.90;99.90
20735;DHT22;10528;52.124;5.196;2023-05-24T02:30:49;8.80;99.90
20735;DHT22;10528;52.124;5.196;2023-05-24T02:33:16;8.70;99.90
20735;DHT22;10528;52.124;5.196;2023-05-24T02:35:43;8.60;99.90
20735;DHT22;10528;52.124;5.196;2023-05-24T02:38:10;8.50;99.90
20735;DHT22;10528;52.124;5.196;2023-05-24T02:40:37;8.60;99.90
20735;DHT22;10528;52.124;5.196;2023-05-24T02:43:04;8.50;99.90
20735;DHT22;10528;52.124;5.196;2023-05-24T02:45:31;8.40;99.90
20735;DHT22;10528;52.124;5.196;2023-05-24T02:47:58;8.50;99.90
20735;DHT22;10528;52.124;5.196;2023-05-24T02:50:25;8.50;99.90
20735;DHT22;10528;52.124;5.196;2023-05-24T02:52:52;8.50;99.90
20735;DHT22;10528;52.124;5.196;2023-05-24T02:55:19;8.40;99.90
20735;DHT22;10528;52.124;5.196;2023-05-24T02:57:46;8.30;99.90
20735;DHT22;10528;52.124;5.196;2023-05-24T03:00:14;8.30;99.90
20735;DHT22;10528;52.124;5.196;2023-05-24T03:02:43;8.20;99.90
20735;DHT22;10528;52.124;5.196;2023-05-24T03:05:13;8.20;99.90
20735;DHT22;10528;52.124;5.196;2023-05-24T03:07:40;8.20;99.90
20735;DHT22;10528;52.124;5.196;2023-05-24T03:10:08;8.30;99.90
20735;DHT22;10528;52.124;5.196;2023-05-24T03:12:35;8.20;99.90
20735;DHT22;10528;52.124;5.196;2023-05-24T03:15:02;8.20;99.90
20735;DHT22;10528;52.124;5.196;2023-05-24T03:17:30;8.30;99.90
20735;DHT22;10528;52.124;5.196;2023-05-24T03:19:57;8.10;99.90
20735;DHT22;10528;52.124;5.196;2023-05-24T03:22:24;8.10;99.90
20735;DHT22;10528;52.124;5.196;2023-05-24T03:24:51;7.90;99.90
20735;DHT22;10528;52.124;5.196;2023-05-24T03:27:18;7.90;99.90
20735;DHT22;10528;52.124;5.196;2023-05-24T03:29:45;7.90;99.90
20735;DHT22;10528;52.124;5.196;2023-05-24T03:32:12;8.00;99.90
20735;DHT22;10528;52.124;5.196;2023-05-24T03:34:39;8.00;99.90
20735;DHT22;10528;52.124;5.196;2023-05-24T03:37:07;8.00;99.90
20735;DHT22;10528;52.124;5.196;2023-05-24T03:39:34;8.00;99.90
20735;DHT22;10528;52.124;5.196;2023-05-24T03:42:19;8.00;99.90
20735;DHT22;10528;52.124;5.196;2023-05-24T03:44:46;7.90;99.90
20735;DHT22;10528;52.124;5.196;2023-05-24T03:47:13;8.00;99.90
20735;DHT22;10528;52.124;5.196;2023-05-24T03:49:40;7.90;99.90
20735;DHT22;10528;52.124;5.196;2023-05-24T03:52:07;8.00;99.90
20735;DHT22;10528;52.124;5.196;2023-05-24T03:54:34;8.00;99.90
20735;DHT22;10528;52.124;5.196;2023-05-24T03:57:01;8.00;99.90
20735;DHT22;10528;52.124;5.196;2023-05-24T03:59:28;8.00;99.90
20735;DHT22;10528;52.124;5.196;2023-05-24T04:01:56;8.10;99.90
20735;DHT22;10528;52.124;5.196;2023-05-24T04:04:24;8.10;99.90
20735;DHT22;10528;52.124;5.196;2023-05-24T04:06:51;8.00;99.90
20735;DHT22;10528;52.124;5.196;2023-05-24T04:09:21;8.10;99.90
20735;DHT22;10528;52.124;5.196;2023-05-24T04:11:48;8.10;99.90
20735;DHT22;10528;52.124;5.196;2023-05-24T04:14:15;8.20;99.90
20735;DHT22;10528;52.124;5.196;2023-05-24T04:16:42;8.20;99.90
20735;DHT22;10528;52.124;5.196;2023-05-24T04:19:10;8.30;99.90
20735;DHT22;10528;52.124;5.196;2023-05-24T04:21:37;8.30;99.90
20735;DHT22;10528;52.124;5.196;2023-05-24T04:24:05;8.40;99.90
20735;DHT22;10528;52.124;5.196;2023-05-24T04:26:33;8.50;99.90
20735;DHT22;10528;52.124;5.196;2023-05-24T04:29:00;8.50;99.90
20735;DHT22;10528;52.124;5.196;2023-05-24T04:31:28;8.60;99.90
20735;DHT22;10528;52.124;5.196;2023-05-24T04:33:56;8.60;99.90
20735;DHT22;10528;52.124;5.196;2023-05-24T04:36:25;8.70;99.90
20735;DHT22;10528;52.124;5.196;2023-05-24T04:38:53;8.80;99.90
20735;DHT22;10528;52.124;5.196;2023-05-24T04:41:21;8.80;99.90
20735;DHT22;10528;52.124;5.196;2023-05-24T04:43:49;8.80;99.90
20735;DHT22;10528;52.124;5.196;2023-05-24T04:46:16;9.00;99.90
20735;DHT22;10528;52.124;5.196;2023-05-24T04:48:43;9.10;99.90
20735;DHT22;10528;52.124;5.196;2023-05-24T04:51:10;9.20;99.90
20735;DHT22;10528;52.124;5.196;2023-05-24T04:53:37;9.30;99.90
20735;DHT22;10528;52.124;5.196;2023-05-24T04:56:04;9.40;99.90
20735;DHT22;10528;52.124;5.196;2023-05-24T04:58:31;9.60;99.90
20735;DHT22;10528;52.124;5.196;2023-05-24T05:00:58;9.70;99.90
20735;DHT22;10528;52.124;5.196;2023-05-24T05:03:25;9.80;99.90
20735;DHT22;10528;52.124;5.196;2023-05-24T05:05:52;9.90;99.90
20735;DHT22;10528;52.124;5.196;2023-05-24T05:08:19;10.00;99.90
20735;DHT22;10528;52.124;5.196;2023-05-24T05:10:47;10.00;99.90
20735;DHT22;10528;52.124;5.196;2023-05-24T05:13:14;10.10;99.90
20735;DHT22;10528;52.124;5.196;2023-05-24T05:15:41;10.30;99.90
20735;DHT22;10528;52.124;5.196;2023-05-24T05:18:08;10.50;99.90
20735;DHT22;10528;52.124;5.196;2023-05-24T05:20:35;10.70;99.90
20735;DHT22;10528;52.124;5.196;2023-05-24T05:23:03;10.90;99.90
20735;DHT22;10528;52.124;5.196;2023-05-24T05:25:29;10.90;99.90
20735;DHT22;10528;52.124;5.196;2023-05-24T05:27:57;11.00;99.90
20735;DHT22;10528;52.124;5.196;2023-05-24T05:30:24;11.20;99.90
20735;DHT22;10528;52.124;5.196;2023-05-24T05:32:50;11.90;99.90
20735;DHT22;10528;52.124;5.196;2023-05-24T05:35:17;12.80;99.90
20735;DHT22;10528;52.124;5.196;2023-05-24T05:37:44;13.40;99.90
20735;DHT22;10528;52.124;5.196;2023-05-24T05:40:11;13.90;99.90
20735;DHT22;10528;52.124;5.196;2023-05-24T05:42:38;14.40;99.90
20735;DHT22;10528;52.124;5.196;2023-05-24T05:45:06;14.80;99.90
20735;DHT22;10528;52.124;5.196;2023-05-24T05:47:33;15.30;99.90
20735;DHT22;10528;52.124;5.196;2023-05-24T05:50:01;15.60;99.90
20735;DHT22;10528;52.124;5.196;2023-05-24T05:52:27;16.10;99.90
20735;DHT22;10528;52.124;5.196;2023-05-24T05:54:54;16.40;99.90
20735;DHT22;10528;52.124;5.196;2023-05-24T05:57:21;16.60;99.90
20735;DHT22;10528;52.124;5.196;2023-05-24T05:59:50;17.00;99.90
20735;DHT22;10528;52.124;5.196;2023-05-24T06:02:17;17.50;99.90
20735;DHT22;10528;52.124;5.196;2023-05-24T06:04:45;17.40;99.90
20735;DHT22;10528;52.124;5.196;2023-05-24T06:07:12;17.90;99.90
20735;DHT22;10528;52.124;5.196;2023-05-24T06:09:39;18.10;99.90
20735;DHT22;10528;52.124;5.196;2023-05-24T06:12:06;18.20;99.90
20735;DHT22;10528;52.124;5.196;2023-05-24T06:14:33;18.10;99.90
20735;DHT22;10528;52.124;5.196;2023-05-24T06:17:07;18.40;99.90
20735;DHT22;10528;52.124;5.196;2023-05-24T06:19:34;18.60;99.90
20735;DHT22;10528;52.124;5.196;2023-05-24T06:22:01;18.70;99.90
20735;DHT22;10528;52.124;5.196;2023-05-24T06:24:28;19.20;99.90
20735;DHT22;10528;52.124;5.196;2023-05-24T06:26:55;19.20;99.90
20735;DHT22;10528;52.124;5.196;2023-05-24T06:29:23;19.30;99.90
20735;DHT22;10528;52.124;5.196;2023-05-24T06:31:50;18.90;99.90
20735;DHT22;10528;52.124;5.196;2023-05-24T06:34:18;19.40;99.90
20735;DHT22;10528;52.124;5.196;2023-05-24T06:36:48;19.40;99.90
20735;DHT22;10528;52.124;5.196;2023-05-24T06:39:16;18.70;99.90
20735;DHT22;10528;52.124;5.196;2023-05-24T06:41:44;18.60;99.90
20735;DHT22;10528;52.124;5.196;2023-05-24T06:44:12;18.70;99.90
20735;DHT22;10528;52.124;5.196;2023-05-24T06:46:39;19.30;99.90
20735;DHT22;10528;52.124;5.196;2023-05-24T06:49:06;19.70;99.90
20735;DHT22;10528;52.124;5.196;2023-05-24T06:51:34;19.60;99.90
20735;DHT22;10528;52.124;5.196;2023-05-24T06:54:02;19.60;99.90
20735;DHT22;10528;52.124;5.196;2023-05-24T06:56:29;18.60;99.90
20735;DHT22;10528;52.124;5.196;2023-05-24T06:58:58;18.40;99.90
20735;DHT22;10528;52.124;5.196;2023-05-24T07:01:25;17.30;99.90
20735;DHT22;10528;52.124;5.196;2023-05-24T07:03:53;18.10;99.90
20735;DHT22;10528;52.124;5.196;2023-05-24T07:06:20;18.10;99.90
20735;DHT22;10528;52.124;5.196;2023-05-24T07:08:46;18.00;99.90
20735;DHT22;10528;52.124;5.196;2023-05-24T07:11:13;17.50;99.90
20735;DHT22;10528;52.124;5.196;2023-05-24T07:13:41;17.10;99.90
20735;DHT22;10528;52.124;5.196;2023-05-24T07:16:08;17.80;99.90
20735;DHT22;10528;52.124;5.196;2023-05-24T07:18:35;18.10;99.90
20735;DHT22;10528;52.124;5.196;2023-05-24T07:21:02;17.90;99.90
20735;DHT22;10528;52.124;5.196;2023-05-24T07:23:29;18.00;99.90
20735;DHT22;10528;52.124;5.196;2023-05-24T07:25:56;17.70;99.90
20735;DHT22;10528;52.124;5.196;2023-05-24T07:28:23;18.60;99.90
20735;DHT22;10528;52.124;5.196;2023-05-24T07:30:50;19.30;99.90
20735;DHT22;10528;52.124;5.196;2023-05-24T07:33:17;19.80;99.90
20735;DHT22;10528;52.124;5.196;2023-05-24T07:35:44;18.70;99.90
20735;DHT22;10528;52.124;5.196;2023-05-24T07:38:17;18.60;99.90
20735;DHT22;10528;52.124;5.196;2023-05-24T07:40:44;17.50;99.90
20735;DHT22;10528;52.124;5.196;2023-05-24T07:43:11;16.80;99.90
20735;DHT22;10528;52.124;5.196;2023-05-24T07:45:38;16.60;99.90
20735;DHT22;10528;52.124;5.196;2023-05-24T07:48:05;17.10;99.90
20735;DHT22;10528;52.124;5.196;2023-05-24T07:50:32;17.00;99.90
20735;DHT22;10528;52.124;5.196;2023-05-24T07:52:59;17.10;99.90
20735;DHT22;10528;52.124;5.196;2023-05-24T07:55:26;17.10;99.90
20735;DHT22;10528;52.124;5.196;2023-05-24T07:57:53;17.50;99.90
20735;DHT22;10528;52.124;5.196;2023-05-24T08:00:22;17.20;99.90
20735;DHT22;10528;52.124;5.196;2023-05-24T08:02:49;17.10;99.90
20735;DHT22;10528;52.124;5.196;2023-05-24T08:05:16;17.60;99.90
20735;DHT22;10528;52.124;5.196;2023-05-24T08:07:43;18.90;99.90
20735;DHT22;10528;52.124;5.196;2023-05-24T08:10:11;18.60;99.90
20735;DHT22;10528;52.124;5.196;2023-05-24T08:12:39;18.20;99.90
20735;DHT22;10528;52.124;5.196;2023-05-24T08:15:06;18.30;99.90
20735;DHT22;10528;52.124;5.196;2023-05-24T08:17:34;17.60;99.90
20735;DHT22;10528;52.124;5.196;2023-05-24T08:20:02;17.10;99.90
20735;DHT22;10528;52.124;5.196;2023-05-24T08:22:35;17.70;99.90
20735;DHT22;10528;52.124;5.196;2023-05-24T08:25:03;18.40;99.90
20735;DHT22;10528;52.124;5.196;2023-05-24T08:27:31;18.00;99.90
20735;DHT22;10528;52.124;5.196;2023-05-24T08:30:02;17.40;99.90
20735;DHT22;10528;52.124;5.196;2023-05-24T08:32:29;17.10;99.90
20735;DHT22;10528;52.124;5.196;2023-05-24T08:34:57;16.90;99.90
20735;DHT22;10528;52.124;5.196;2023-05-24T08:37:44;16.70;99.90
20735;DHT22;10528;52.124;5.196;2023-05-24T08:40:12;16.70;99.90
20735;DHT22;10528;52.124;5.196;2023-05-24T08:42:40;17.20;99.90
20735;DHT22;10528;52.124;5.196;2023-05-24T08:45:10;17.80;99.90
20735;DHT22;10528;52.124;5.196;2023-05-24T08:47:39;17.90;99.90
20735;DHT22;10528;52.124;5.196;2023-05-24T08:50:07;17.30;99.90
20735;DHT22;10528;52.124;5.196;2023-05-24T08:52:35;17.60;99.90
20735;DHT22;10528;52.124;5.196;2023-05-24T08:55:05;17.90;99.90
20735;DHT22;10528;52.124;5.196;2023-05-24T08:57:33;17.60;99.90
20735;DHT22;10528;52.124;5.196;2023-05-24T09:00:09;17.70;99.90
20735;DHT22;10528;52.124;5.196;2023-05-24T09:02:38;18.00;99.90
20735;DHT22;10528;52.124;5.196;2023-05-24T09:05:12;18.30;99.90
20735;DHT22;10528;52.124;5.196;2023-05-24T09:07:43;18.70;99.90
20735;DHT22;10528;52.124;5.196;2023-05-24T09:10:11;18.80;99.90
20735;DHT22;10528;52.124;5.196;2023-05-24T09:12:41;18.70;99.90
20735;DHT22;10528;52.124;5.196;2023-05-24T09:15:15;18.60;99.90
20735;DHT22;10528;52.124;5.196;2023-05-24T09:17:42;18.60;99.90
20735;DHT22;10528;52.124;5.196;2023-05-24T09:20:11;18.10;99.90
20735;DHT22;10528;52.124;5.196;2023-05-24T09:22:40;17.90;99.90
20735;DHT22;10528;52.124;5.196;2023-05-24T09:25:11;17.70;99.90
20735;DHT22;10528;52.124;5.196;2023-05-24T09:27:39;17.90;99.90
20735;DHT22;10528;52.124;5.196;2023-05-24T09:30:10;18.00;99.90
20735;DHT22;10528;52.124;5.196;2023-05-24T09:32:38;17.80;99.90
20735;DHT22;10528;52.124;5.196;2023-05-24T09:35:08;17.50;99.90
20735;DHT22;10528;52.124;5.196;2023-05-24T09:37:37;17.70;99.90
20735;DHT22;10528;52.124;5.196;2023-05-24T09:40:17;17.60;99.90
20735;DHT22;10528;52.124;5.196;2023-05-24T09:42:46;18.30;99.90
20735;DHT22;10528;52.124;5.196;2023-05-24T09:45:16;18.50;99.90
20735;DHT22;10528;52.124;5.196;2023-05-24T09:47:43;18.40;99.90
20735;DHT22;10528;52.124;5.196;2023-05-24T09:50:15;18.00;99.90
20735;DHT22;10528;52.124;5.196;2023-05-24T09:52:45;18.20;99.90
20735;DHT22;10528;52.124;5.196;2023-05-24T09:55:19;17.80;99.90
20735;DHT22;10528;52.124;5.196;2023-05-24T09:58:01;17.40;99.90
20735;DHT22;10528;52.124;5.196;2023-05-24T10:00:39;17.40;99.90
20735;DHT22;10528;52.124;5.196;2023-05-24T10:03:09;17.30;99.90
20735;DHT22;10528;52.124;5.196;2023-05-24T10:05:43;17.40;99.90
20735;DHT22;10528;52.124;5.196;2023-05-24T10:08:11;18.00;99.90
20735;DHT22;10528;52.124;5.196;2023-05-24T10:10:40;18.50;99.90
20735;DHT22;10528;52.124;5.196;2023-05-24T10:13:08;18.80;99.90
20735;DHT22;10528;52.124;5.196;2023-05-24T10:15:35;19.30;99.90
20735;DHT22;10528;52.124;5.196;2023-05-24T10:18:02;19.10;99.90
20735;DHT22;10528;52.124;5.196;2023-05-24T10:20:36;19.00;99.90
20735;DHT22;10528;52.124;5.196;2023-05-24T10:23:06;18.80;99.90
20735;DHT22;10528;52.124;5.196;2023-05-24T10:25:38;18.70;99.90
20735;DHT22;10528;52.124;5.196;2023-05-24T10:28:11;19.00;99.90
20735;DHT22;10528;52.124;5.196;2023-05-24T10:33:27;19.00;99.90
20735;DHT22;10528;52.124;5.196;2023-05-24T10:35:57;18.60;99.90
20735;DHT22;10528;52.124;5.196;2023-05-24T10:38:24;19.30;99.90
20735;DHT22;10528;52.124;5.196;2023-05-24T10:40:51;19.00;99.90
20735;DHT22;10528;52.124;5.196;2023-05-24T10:43:20;18.20;99.90
20735;DHT22;10528;52.124;5.196;2023-05-24T10:45:48;18.20;99.90
20735;DHT22;10528;52.124;5.196;2023-05-24T10:50:49;18.30;99.90
20735;DHT22;10528;52.124;5.196;2023-05-24T10:53:18;18.20;99.90
20735;DHT22;10528;52.124;5.196;2023-05-24T10:55:59;18.20;99.90
20735;DHT22;10528;52.124;5.196;2023-05-24T10:58:59;18.10;99.90
20735;DHT22;10528;52.124;5.196;2023-05-24T11:01:32;17.90;99.90
20735;DHT22;10528;52.124;5.196;2023-05-24T11:04:09;17.70;99.90
20735;DHT22;10528;52.124;5.196;2023-05-24T11:06:48;17.60;99.90
20735;DHT22;10528;52.124;5.196;2023-05-24T11:09:16;17.60;99.90
20735;DHT22;10528;52.124;5.196;2023-05-24T11:11:43;17.80;99.90
20735;DHT22;10528;52.124;5.196;2023-05-24T11:14:17;17.90;99.90
20735;DHT22;10528;52.124;5.196;2023-05-24T11:16:48;17.80;99.90
20735;DHT22;10528;52.124;5.196;2023-05-24T11:19:37;18.00;99.90
20735;DHT22;10528;52.124;5.196;2023-05-24T11:22:14;17.80;99.90
20735;DHT22;10528;52.124;5.196;2023-05-24T11:24:41;17.70;99.90
20735;DHT22;10528;52.124;5.196;2023-05-24T11:27:10;17.80;99.90
20735;DHT22;10528;52.124;5.196;2023-05-24T11:29:42;17.70;99.90
20735;DHT22;10528;52.124;5.196;2023-05-24T11:32:19;17.70;99.90
20735;DHT22;10528;52.124;5.196;2023-05-24T11:34:49;17.60;99.90
20735;DHT22;10528;52.124;5.196;2023-05-24T11:37:16;17.60;99.90
20735;DHT22;10528;52.124;5.196;2023-05-24T11:39:49;17.70;99.90
20735;DHT22;10528;52.124;5.196;2023-05-24T11:42:20;17.80;99.90
20735;DHT22;10528;52.124;5.196;2023-05-24T11:44:49;17.70;99.90
20735;DHT22;10528;52.124;5.196;2023-05-24T11:47:19;17.40;99.90
20735;DHT22;10528;52.124;5.196;2023-05-24T11:49:51;17.30;99.90
20735;DHT22;10528;52.124;5.196;2023-05-24T11:52:18;17.40;99.90
20735;DHT22;10528;52.124;5.196;2023-05-24T11:54:45;17.30;99.90
20735;DHT22;10528;52.124;5.196;2023-05-24T11:57:13;17.20;99.90
20735;DHT22;10528;52.124;5.196;2023-05-24T11:59:40;17.10;99.90
20735;DHT22;10528;52.124;5.196;2023-05-24T12:02:07;17.30;99.90
20735;DHT22;10528;52.124;5.196;2023-05-24T12:04:36;17.40;99.90
20735;DHT22;10528;52.124;5.196;2023-05-24T12:07:03;17.10;99.90
20735;DHT22;10528;52.124;5.196;2023-05-24T12:09:30;17.20;99.90
20735;DHT22;10528;52.124;5.196;2023-05-24T12:11:58;17.20;99.90
20735;DHT22;10528;52.124;5.196;2023-05-24T12:14:29;17.10;99.90
20735;DHT22;10528;52.124;5.196;2023-05-24T12:16:58;17.10;99.90
20735;DHT22;10528;52.124;5.196;2023-05-24T12:19:32;17.20;99.90
20735;DHT22;10528;52.124;5.196;2023-05-24T12:22:04;17.40;99.90
20735;DHT22;10528;52.124;5.196;2023-05-24T12:24:33;17.60;99.90
20735;DHT22;10528;52.124;5.196;2023-05-24T12:27:02;18.00;99.90
20735;DHT22;10528;52.124;5.196;2023-05-24T12:29:37;18.10;99.90
20735;DHT22;10528;52.124;5.196;2023-05-24T12:32:08;18.00;99.90
20735;DHT22;10528;52.124;5.196;2023-05-24T12:34:42;17.80;99.90
20735;DHT22;10528;52.124;5.196;2023-05-24T12:37:10;17.50;99.90
20735;DHT22;10528;52.124;5.196;2023-05-24T12:39:39;17.50;99.90
20735;DHT22;10528;52.124;5.196;2023-05-24T12:42:09;18.00;99.90
20735;DHT22;10528;52.124;5.196;2023-05-24T12:44:39;18.00;99.90
20735;DHT22;10528;52.124;5.196;2023-05-24T12:47:06;17.80;99.90
20735;DHT22;10528;52.124;5.196;2023-05-24T12:49:35;17.50;99.90
20735;DHT22;10528;52.124;5.196;2023-05-24T12:52:02;17.80;99.90
20735;DHT22;10528;52.124;5.196;2023-05-24T12:54:29;18.20;99.90
20735;DHT22;10528;52.124;5.196;2023-05-24T12:56:57;18.40;99.90
20735;DHT22;10528;52.124;5.196;2023-05-24T12:59:26;18.30;99.90
20735;DHT22;10528;52.124;5.196;2023-05-24T13:01:54;18.00;99.90
20735;DHT22;10528;52.124;5.196;2023-05-24T13:04:22;17.80;99.90
20735;DHT22;10528;52.124;5.196;2023-05-24T13:06:52;17.90;99.90
20735;DHT22;10528;52.124;5.196;2023-05-24T13:09:20;18.20;99.90
20735;DHT22;10528;52.124;5.196;2023-05-24T13:11:49;18.20;99.90
20735;DHT22;10528;52.124;5.196;2023-05-24T13:14:16;18.20;99.90
20735;DHT22;10528;52.124;5.196;2023-05-24T13:16:44;18.30;99.90
20735;DHT22;10528;52.124;5.196;2023-05-24T13:19:11;18.70;99.90
20735;DHT22;10528;52.124;5.196;2023-05-24T13:21:39;18.70;99.90
20735;DHT22;10528;52.124;5.196;2023-05-24T13:24:06;18.30;99.90
20735;DHT22;10528;52.124;5.196;2023-05-24T13:26:33;18.30;99.90
20735;DHT22;10528;52.124;5.196;2023-05-24T13:29:06;18.20;99.90
20735;DHT22;10528;52.124;5.196;2023-05-24T13:31:53;18.30;99.90
20735;DHT22;10528;52.124;5.196;2023-05-24T13:34:23;18.50;99.90
20735;DHT22;10528;52.124;5.196;2023-05-24T13:36:52;18.10;99.90
20735;DHT22;10528;52.124;5.196;2023-05-24T13:39:20;18.10;99.90
20735;DHT22;10528;52.124;5.196;2023-05-24T13:41:48;18.10;99.90
20735;DHT22;10528;52.124;5.196;2023-05-24T13:44:15;17.90;99.90
20735;DHT22;10528;52.124;5.196;2023-05-24T13:46:43;18.00;99.90
20735;DHT22;10528;52.124;5.196;2023-05-24T13:49:10;18.10;99.90
20735;DHT22;10528;52.124;5.196;2023-05-24T13:51:38;18.10;99.90
20735;DHT22;10528;52.124;5.196;2023-05-24T13:54:05;17.90;99.90
20735;DHT22;10528;52.124;5.196;2023-05-24T13:56:34;17.90;99.90
20735;DHT22;10528;52.124;5.196;2023-05-24T13:59:02;17.80;99.90
20735;DHT22;10528;52.124;5.196;2023-05-24T14:01:30;18.00;99.90
20735;DHT22;10528;52.124;5.196;2023-05-24T14:04:00;17.80;99.90
20735;DHT22;10528;52.124;5.196;2023-05-24T14:06:27;17.90;99.90
20735;DHT22;10528;52.124;5.196;2023-05-24T14:08:55;18.10;99.90
20735;DHT22;10528;52.124;5.196;2023-05-24T14:11:22;18.00;99.90
20735;DHT22;10528;52.124;5.196;2023-05-24T14:13:50;17.70;99.90
20735;DHT22;10528;52.124;5.196;2023-05-24T14:16:20;17.70;99.90
20735;DHT22;10528;52.124;5.196;2023-05-24T14:18:47;17.90;99.90
20735;DHT22;10528;52.124;5.196;2023-05-24T14:21:17;18.00;99.90
20735;DHT22;10528;52.124;5.196;2023-05-24T14:23:44;18.10;99.90
20735;DHT22;10528;52.124;5.196;2023-05-24T14:26:11;18.00;99.90
20735;DHT22;10528;52.124;5.196;2023-05-24T14:28:38;17.90;99.90
20735;DHT22;10528;52.124;5.196;2023-05-24T14:31:05;17.90;99.90
20735;DHT22;10528;52.124;5.196;2023-05-24T14:33:32;17.90;99.90
20735;DHT22;10528;52.124;5.196;2023-05-24T14:35:59;18.10;99.90
20735;DHT22;10528;52.124;5.196;2023-05-24T14:38:26;18.20;99.90
20735;DHT22;10528;52.124;5.196;2023-05-24T14:40:53;17.80;99.90
20735;DHT22;10528;52.124;5.196;2023-05-24T14:43:22;17.50;99.90
20735;DHT22;10528;52.124;5.196;2023-05-24T14:45:49;17.50;99.90
20735;DHT22;10528;52.124;5.196;2023-05-24T14:48:16;17.70;99.90
20735;DHT22;10528;52.124;5.196;2023-05-24T14:50:43;17.60;99.90
20735;DHT22;10528;52.124;5.196;2023-05-24T14:53:10;17.80;99.90
20735;DHT22;10528;52.124;5.196;2023-05-24T14:55:40;17.90;99.90
20735;DHT22;10528;52.124;5.196;2023-05-24T14:58:09;17.80;99.90
20735;DHT22;10528;52.124;5.196;2023-05-24T15:00:40;17.80;99.90
20735;DHT22;10528;52.124;5.196;2023-05-24T15:03:08;17.80;99.90
20735;DHT22;10528;52.124;5.196;2023-05-24T15:05:38;17.80;99.90
20735;DHT22;10528;52.124;5.196;2023-05-24T15:08:07;17.80;99.90
20735;DHT22;10528;52.124;5.196;2023-05-24T15:10:34;18.00;99.90
20735;DHT22;10528;52.124;5.196;2023-05-24T15:13:02;17.90;99.90
20735;DHT22;10528;52.124;5.196;2023-05-24T15:15:29;17.80;99.90
20735;DHT22;10528;52.124;5.196;2023-05-24T15:17:56;17.80;99.90
20735;DHT22;10528;52.124;5.196;2023-05-24T15:20:25;17.80;99.90
20735;DHT22;10528;52.124;5.196;2023-05-24T15:22:52;17.90;99.90
20735;DHT22;10528;52.124;5.196;2023-05-24T15:25:19;18.10;99.90
20735;DHT22;10528;52.124;5.196;2023-05-24T15:27:47;18.00;99.90
20735;DHT22;10528;52.124;5.196;2023-05-24T15:30:14;17.90;99.90
20735;DHT22;10528;52.124;5.196;2023-05-24T15:32:42;17.80;99.90
20735;DHT22;10528;52.124;5.196;2023-05-24T15:35:11;17.60;99.90
20735;DHT22;10528;52.124;5.196;2023-05-24T15:37:39;17.70;99.90
20735;DHT22;10528;52.124;5.196;2023-05-24T15:40:09;17.70;99.90
20735;DHT22;10528;52.124;5.196;2023-05-24T15:42:36;17.70;99.90
20735;DHT22;10528;52.124;5.196;2023-05-24T15:45:04;17.50;99.90
20735;DHT22;10528;52.124;5.196;2023-05-24T15:47:32;17.50;99.90
20735;DHT22;10528;52.124;5.196;2023-05-24T15:50:08;17.50;99.90
20735;DHT22;10528;52.124;5.196;2023-05-24T15:52:35;17.40;99.90
20735;DHT22;10528;52.124;5.196;2023-05-24T15:55:03;17.40;99.90
20735;DHT22;10528;52.124;5.196;2023-05-24T15:57:30;17.50;99.90
20735;DHT22;10528;52.124;5.196;2023-05-24T15:59:57;17.60;99.90
20735;DHT22;10528;52.124;5.196;2023-05-24T16:02:25;17.70;99.90